Time;durP1;ratioP1;P1;durP2;ratioP2;P2;SDS_P1;SDS_P2;PMS_P1;PMS_P2;Temp;Humidity;BMP_temperature;BMP_pressure;BME280_temperature;BME280_humidity;BME280_pressure;Samples;Min_cycle;Max_cycle;Signal;HPM_P1;HPM_P2
2022/10/19 00:00:21;;;;;;;27.83;13.90;;;15.70;38.10;;;;;;5001324;28;20461;-67
2022/10/19 00:02:47;;;;;;;15.93;14.23;;;15.60;38.10;;;;;;5004711;28;20459;-68
2022/10/19 00:05:16;;;;;;;16.17;13.33;;;15.60;38.30;;;;;;5002320;28;20487;-67
2022/10/19 00:07:42;;;;;;;17.33;12.80;;;15.50;38.60;;;;;;5001886;28;20462;-69
2022/10/19 00:10:10;;;;;;;23.70;13.57;;;15.50;38.60;;;;;;5002355;28;20479;-67
2022/10/19 00:12:36;;;;;;;22.10;13.33;;;15.40;38.40;;;;;;5001185;28;20460;-67
2022/10/19 00:15:05;;;;;;;15.77;13.80;;;15.30;38.50;;;;;;5003603;28;20483;-67
2022/10/19 00:17:33;;;;;;;25.70;14.53;;;15.30;38.50;;;;;;4998875;28;20456;-68
2022/10/19 00:20:00;;;;;;;16.93;12.50;;;15.10;38.60;;;;;;5003850;28;20844;-67
2022/10/19 00:22:28;;;;;;;14.47;12.60;;;15.10;38.50;;;;;;5002855;28;20463;-67
2022/10/19 00:24:57;;;;;;;11.30;10.10;;;15.00;38.70;;;;;;5002825;28;21005;-69
2022/10/19 00:27:23;;;;;;;12.20;11.00;;;15.00;38.80;;;;;;5001516;28;21086;-66
2022/10/19 00:29:50;;;;;;;12.40;10.33;;;14.90;39.00;;;;;;5002450;28;20486;-68
2022/10/19 00:32:17;;;;;;;19.23;8.30;;;14.90;39.10;;;;;;5004331;28;20476;-66
2022/10/19 00:34:44;;;;;;;17.03;5.97;;;14.90;39.40;;;;;;5000982;28;20485;-68
2022/10/19 00:37:11;;;;;;;14.70;7.10;;;14.90;39.60;;;;;;5006869;28;20462;-67
2022/10/19 00:39:39;;;;;;;13.03;8.10;;;14.80;39.80;;;;;;4998443;28;20457;-68
2022/10/19 00:42:06;;;;;;;10.00;7.20;;;14.80;39.80;;;;;;5005233;28;20471;-68
2022/10/19 00:45:06;;;;;;;12.97;9.50;;;14.80;39.80;;;;;;5000700;28;20510;-67
2022/10/19 00:47:34;;;;;;;12.27;10.43;;;14.80;40.30;;;;;;5002614;28;20459;-68
2022/10/19 00:50:01;;;;;;;12.57;10.33;;;14.70;40.10;;;;;;5001488;28;20477;-67
2022/10/19 00:52:28;;;;;;;12.23;9.43;;;14.60;40.20;;;;;;5004411;28;20464;-67
2022/10/19 00:54:58;;;;;;;12.50;10.33;;;14.60;40.20;;;;;;5003060;28;20492;-67
2022/10/19 00:57:29;;;;;;;10.70;8.97;;;14.50;40.30;;;;;;5000659;28;20474;-68
2022/10/19 00:59:57;;;;;;;11.73;9.23;;;14.50;40.10;;;;;;4999136;28;20452;-68
2022/10/19 01:02:24;;;;;;;12.77;9.17;;;14.50;40.10;;;;;;5002500;28;20482;-68
2022/10/19 01:04:52;;;;;;;8.90;7.93;;;14.50;40.20;;;;;;5003323;28;20794;-68
2022/10/19 01:07:20;;;;;;;7.83;6.77;;;14.50;40.10;;;;;;5007174;28;20463;-68
2022/10/19 01:09:47;;;;;;;9.60;6.80;;;14.50;40.20;;;;;;5002177;28;20484;-68
2022/10/19 01:12:46;;;;;;;7.70;5.80;;;14.40;40.20;;;;;;4994106;28;20483;-68
2022/10/19 01:15:22;;;;;;;6.60;5.83;;;14.40;40.60;;;;;;5001329;28;20517;-67
2022/10/19 01:17:59;;;;;;;8.60;6.97;;;14.40;40.30;;;;;;5001287;28;20460;-67
2022/10/19 01:21:10;;;;;;;9.90;5.77;;;14.40;40.50;;;;;;5003046;28;20463;-67
2022/10/19 01:24:12;;;;;;;25.73;8.07;;;14.40;40.70;;;;;;5002539;28;20499;-69
2022/10/19 01:27:15;;;;;;;7.83;6.03;;;14.30;40.60;;;;;;5003048;28;20467;-66
2022/10/19 01:30:05;;;;;;;11.63;7.30;;;14.30;40.70;;;;;;4980952;28;20479;-68
2022/10/19 01:32:40;;;;;;;10.10;6.60;;;14.30;40.70;;;;;;4999398;28;20572;-67
2022/10/19 01:35:13;;;;;;;11.13;7.50;;;14.20;40.40;;;;;;4999813;28;20484;-67
2022/10/19 01:37:46;;;;;;;11.60;6.63;;;14.20;40.40;;;;;;5003484;28;20470;-67
2022/10/19 01:40:20;;;;;;;14.80;10.07;;;14.20;40.40;;;;;;4997638;28;20465;-67
2022/10/19 01:42:52;;;;;;;13.67;10.33;;;14.20;40.30;;;;;;5000170;28;20460;-67
2022/10/19 01:45:27;;;;;;;15.67;11.20;;;14.20;40.20;;;;;;5006019;28;20833;-67
2022/10/19 01:48:00;;;;;;;19.13;13.97;;;14.20;40.20;;;;;;5007469;28;20462;-67
2022/10/19 01:50:31;;;;;;;18.90;14.13;;;14.20;40.40;;;;;;4997178;28;21077;-67
2022/10/19 01:52:59;;;;;;;29.30;14.03;;;14.20;40.80;;;;;;5009610;28;20975;-68
2022/10/19 01:55:27;;;;;;;24.43;13.20;;;14.20;40.90;;;;;;5005559;28;20480;-66
2022/10/19 01:57:58;;;;;;;14.93;12.20;;;14.20;41.20;;;;;;5005425;28;20457;-67
2022/10/19 02:00:28;;;;;;;20.10;12.37;;;14.30;41.40;;;;;;5005874;28;20462;-67
2022/10/19 02:02:55;;;;;;;14.30;10.40;;;14.30;41.40;;;;;;5003701;28;20459;-67
2022/10/19 02:05:27;;;;;;;11.23;9.57;;;14.40;41.30;;;;;;5002112;28;20486;-69
2022/10/19 02:07:59;;;;;;;12.07;8.67;;;14.40;41.20;;;;;;5007124;28;20451;-68
2022/10/19 02:10:26;;;;;;;15.37;9.57;;;14.40;41.00;;;;;;5006334;28;21022;-68
2022/10/19 02:12:55;;;;;;;14.40;9.67;;;14.40;40.70;;;;;;5003009;28;20467;-66
2022/10/19 02:15:26;;;;;;;16.87;8.70;;;14.50;40.60;;;;;;5002002;28;20479;-67
2022/10/19 02:17:58;;;;;;;18.27;8.40;;;14.50;40.40;;;;;;5008219;28;20459;-69
2022/10/19 02:20:27;;;;;;;23.10;8.93;;;14.50;40.50;;;;;;5004526;28;20470;-69
2022/10/19 02:22:54;;;;;;;40.97;10.20;;;14.50;40.20;;;;;;5004564;28;20474;-68
2022/10/19 02:25:21;;;;;;;48.00;11.30;;;14.60;40.40;;;;;;5007980;28;20491;-67
2022/10/19 02:27:48;;;;;;;46.43;10.80;;;14.60;40.30;;;;;;5004196;28;20856;-67
2022/10/19 02:30:20;;;;;;;22.00;12.00;;;14.60;40.40;;;;;;5006230;28;20479;-67
2022/10/19 02:32:47;;;;;;;22.57;12.20;;;14.60;40.60;;;;;;5002119;28;20460;-67
2022/10/19 02:35:15;;;;;;;17.73;9.50;;;14.60;40.40;;;;;;5007459;28;20858;-67
2022/10/19 02:37:42;;;;;;;19.20;8.40;;;14.70;40.40;;;;;;5005892;28;20472;-67
2022/10/19 02:40:10;;;;;;;12.53;9.50;;;14.70;40.40;;;;;;5007970;28;20997;-67
2022/10/19 02:42:41;;;;;;;22.50;10.27;;;14.70;40.50;;;;;;5003866;28;20465;-67
2022/10/19 02:45:12;;;;;;;30.57;9.30;;;14.70;40.50;;;;;;4997041;28;20484;-67
2022/10/19 02:47:43;;;;;;;26.43;11.30;;;14.80;40.40;;;;;;4998574;28;20464;-67
2022/10/19 02:50:11;;;;;;;33.00;10.17;;;14.80;40.50;;;;;;5000042;28;21125;-67
2022/10/19 02:52:40;;;;;;;18.70;11.47;;;14.80;40.80;;;;;;5005871;28;20468;-68
2022/10/19 02:55:08;;;;;;;25.27;11.60;;;14.70;41.00;;;;;;5004197;28;20480;-68
2022/10/19 02:57:35;;;;;;;33.00;12.23;;;14.70;41.20;;;;;;5008879;28;20467;-67
2022/10/19 03:00:02;;;;;;;24.17;10.93;;;14.70;41.50;;;;;;5018967;28;20459;-67
2022/10/19 03:02:29;;;;;;;26.40;12.00;;;14.70;41.70;;;;;;4999586;28;20483;-67
2022/10/19 03:04:56;;;;;;;23.50;13.03;;;14.60;42.10;;;;;;5008024;28;20471;-67
2022/10/19 03:07:23;;;;;;;26.67;12.20;;;14.60;42.30;;;;;;5006529;28;20470;-67
2022/10/19 03:09:51;;;;;;;42.47;13.50;;;14.60;42.40;;;;;;5002509;28;20483;-68
2022/10/19 03:12:18;;;;;;;33.77;11.57;;;14.70;42.60;;;;;;4998194;28;20463;-68
2022/10/19 03:14:45;;;;;;;45.87;12.90;;;14.70;43.00;;;;;;4999988;28;20512;-68
2022/10/19 03:17:12;;;;;;;42.27;12.20;;;14.60;43.40;;;;;;5007238;28;20460;-69
2022/10/19 03:19:39;;;;;;;40.03;12.57;;;14.60;43.60;;;;;;5001840;28;20963;-67
2022/10/19 03:22:06;;;;;;;62.93;14.03;;;14.60;44.20;;;;;;4997767;28;20464;-69
2022/10/19 03:24:33;;;;;;;36.47;13.87;;;14.50;44.50;;;;;;5005383;28;20487;-68
2022/10/19 03:27:01;;;;;;;70.10;15.57;;;14.50;44.70;;;;;;5004681;28;20563;-68
2022/10/19 03:29:28;;;;;;;29.83;12.80;;;14.40;45.40;;;;;;5004522;28;20464;-67
2022/10/19 03:31:55;;;;;;;27.07;14.57;;;14.40;45.60;;;;;;5006036;28;20494;-68
2022/10/19 03:34:22;;;;;;;67.63;15.73;;;14.40;45.70;;;;;;5000984;28;20953;-67
2022/10/19 03:36:48;;;;;;;59.97;13.83;;;14.40;46.00;;;;;;4999993;28;20479;-67
2022/10/19 03:39:16;;;;;;;43.17;14.57;;;14.40;46.40;;;;;;4988419;28;20467;-67
2022/10/19 03:41:43;;;;;;;48.53;15.00;;;14.50;46.70;;;;;;4997866;28;20468;-66
2022/10/19 03:44:11;;;;;;;38.50;13.80;;;14.50;47.00;;;;;;5000232;28;20480;-68
2022/10/19 03:46:39;;;;;;;57.40;15.37;;;14.50;47.20;;;;;;4999446;28;20463;-68
2022/10/19 03:49:06;;;;;;;32.50;13.30;;;14.50;47.20;;;;;;5000224;28;20984;-69
2022/10/19 03:51:34;;;;;;;54.67;15.33;;;14.50;47.50;;;;;;4998074;28;20491;-66
2022/10/19 03:54:03;;;;;;;50.13;15.40;;;14.50;48.00;;;;;;5004860;28;20510;-66
2022/10/19 03:56:31;;;;;;;44.90;13.80;;;14.50;48.10;;;;;;4997144;28;20460;-67
2022/10/19 03:59:00;;;;;;;48.40;14.27;;;14.50;48.10;;;;;;5001526;28;20470;-68
2022/10/19 04:01:31;;;;;;;50.67;14.37;;;14.50;48.30;;;;;;4997399;28;20475;-67
2022/10/19 04:04:00;;;;;;;49.27;15.40;;;14.50;48.30;;;;;;4998795;28;20506;-67
2022/10/19 04:06:28;;;;;;;72.23;15.87;;;14.40;48.60;;;;;;4992837;28;20468;-68
2022/10/19 04:08:56;;;;;;;61.83;17.33;;;14.40;48.70;;;;;;4999744;28;20476;-69
2022/10/19 04:11:25;;;;;;;54.30;15.67;;;14.40;48.70;;;;;;4998720;28;20483;-66
2022/10/19 04:13:53;;;;;;;76.83;14.43;;;14.40;48.90;;;;;;5000954;28;20510;-66
2022/10/19 04:16:22;;;;;;;53.30;14.60;;;14.40;49.00;;;;;;5008127;28;20487;-66
2022/10/19 04:18:50;;;;;;;49.80;15.53;;;14.40;48.90;;;;;;4998415;28;20471;-66
2022/10/19 04:21:22;;;;;;;33.80;14.23;;;14.40;49.10;;;;;;5007574;28;20471;-66
2022/10/19 04:23:50;;;;;;;54.03;15.27;;;14.40;49.40;;;;;;5006309;28;20491;-68
2022/10/19 04:26:17;;;;;;;83.97;16.00;;;14.40;49.30;;;;;;5007502;28;20457;-67
2022/10/19 04:28:44;;;;;;;32.60;14.13;;;14.40;49.30;;;;;;5000916;28;20456;-68
2022/10/19 04:31:11;;;;;;;27.67;13.27;;;14.40;49.30;;;;;;4997838;28;20490;-66
2022/10/19 04:33:38;;;;;;;46.03;14.73;;;14.40;49.20;;;;;;5006037;28;21280;-66
2022/10/19 04:36:08;;;;;;;31.43;15.10;;;14.50;49.20;;;;;;5003181;28;20469;-67
2022/10/19 04:38:36;;;;;;;64.30;16.73;;;14.50;49.20;;;;;;5005170;28;20451;-66
2022/10/19 04:41:04;;;;;;;54.87;15.67;;;14.50;49.10;;;;;;5001550;28;20451;-66
2022/10/19 04:43:31;;;;;;;48.23;16.00;;;14.50;48.90;;;;;;5002271;28;20835;-66
2022/10/19 04:46:02;;;;;;;49.97;15.07;;;14.60;48.80;;;;;;5005846;28;20857;-66
2022/10/19 04:48:29;;;;;;;32.93;13.90;;;14.60;48.60;;;;;;5000065;28;20464;-67
2022/10/19 04:50:56;;;;;;;83.67;16.80;;;14.70;48.50;;;;;;5006155;28;20481;-67
2022/10/19 04:53:24;;;;;;;30.70;14.40;;;14.60;48.20;;;;;;5007578;28;20456;-67
2022/10/19 04:55:51;;;;;;;57.13;15.10;;;14.70;48.30;;;;;;5000952;28;20780;-67
2022/10/19 04:58:18;;;;;;;55.60;14.67;;;14.60;48.20;;;;;;4997684;28;20464;-67
2022/10/19 05:00:45;;;;;;;47.57;15.80;;;14.60;48.20;;;;;;5000637;28;20466;-68
2022/10/19 05:03:11;;;;;;;59.77;15.50;;;14.60;48.30;;;;;;4998959;28;20874;-69
2022/10/19 05:05:38;;;;;;;32.70;13.80;;;14.60;48.00;;;;;;5005287;28;20456;-67
2022/10/19 05:08:05;;;;;;;28.87;14.80;;;14.70;48.10;;;;;;4998725;28;20460;-67
2022/10/19 05:10:33;;;;;;;28.57;14.20;;;14.70;48.30;;;;;;5005839;28;20903;-67
2022/10/19 05:13:01;;;;;;;26.30;13.60;;;14.70;48.10;;;;;;4995501;28;20460;-67
2022/10/19 05:15:28;;;;;;;28.53;14.80;;;14.70;47.90;;;;;;5005510;28;20480;-68
2022/10/19 05:17:55;;;;;;;45.40;14.57;;;14.80;47.80;;;;;;5000132;28;20459;-65
2022/10/19 05:20:22;;;;;;;61.93;15.30;;;14.90;47.50;;;;;;5011934;28;20856;-67
2022/10/19 05:22:49;;;;;;;42.00;20.97;;;14.90;47.30;;;;;;5003484;28;20460;-66
2022/10/19 05:25:16;;;;;;;36.83;14.07;;;14.90;47.30;;;;;;5007698;28;20483;-66
2022/10/19 05:27:44;;;;;;;73.00;16.23;;;14.90;47.10;;;;;;5007862;28;20498;-66
2022/10/19 05:30:13;;;;;;;75.67;15.17;;;14.80;47.00;;;;;;5011033;28;20456;-66
2022/10/19 05:32:40;;;;;;;41.13;12.50;;;14.80;47.00;;;;;;5006450;28;20503;-66
2022/10/19 05:35:07;;;;;;;31.73;15.03;;;14.80;47.20;;;;;;5005667;28;20492;-67
2022/10/19 05:37:34;;;;;;;26.67;13.97;;;14.80;47.80;;;;;;5009736;28;20470;-67
2022/10/19 05:40:00;;;;;;;39.20;13.10;;;14.80;47.20;;;;;;5005354;28;20971;-67
2022/10/19 05:42:28;;;;;;;45.60;14.73;;;14.80;47.20;;;;;;5011756;28;20452;-66
2022/10/19 05:44:56;;;;;;;64.50;14.90;;;14.80;47.40;;;;;;5005673;28;20490;-67
2022/10/19 05:47:23;;;;;;;24.63;12.87;;;14.80;47.60;;;;;;5006558;28;20460;-66
2022/10/19 05:49:50;;;;;;;29.70;13.27;;;14.80;47.50;;;;;;5004326;28;20471;-66
2022/10/19 05:52:17;;;;;;;40.13;14.93;;;14.80;47.40;;;;;;5008623;28;20700;-66
2022/10/19 05:54:43;;;;;;;27.20;14.27;;;14.80;47.40;;;;;;5005077;28;20480;-67
2022/10/19 05:57:10;;;;;;;26.30;12.73;;;14.90;47.30;;;;;;5002890;28;20470;-66
2022/10/19 05:59:37;;;;;;;31.60;14.00;;;14.90;47.20;;;;;;5004762;28;20555;-67
2022/10/19 06:02:05;;;;;;;30.60;12.10;;;15.00;47.00;;;;;;5008909;28;20851;-66
2022/10/19 06:04:32;;;;;;;27.63;12.30;;;15.00;46.70;;;;;;5001790;28;20479;-67
2022/10/19 06:07:00;;;;;;;26.30;12.50;;;15.00;46.60;;;;;;5009181;28;20464;-69
2022/10/19 06:09:27;;;;;;;54.70;15.63;;;15.10;46.40;;;;;;4999329;28;21223;-66
2022/10/19 06:11:54;;;;;;;63.73;15.20;;;15.10;46.50;;;;;;5009882;28;20487;-66
2022/10/19 06:14:20;;;;;;;27.30;14.27;;;15.10;46.40;;;;;;5000029;28;20485;-68
2022/10/19 06:16:47;;;;;;;32.63;15.13;;;15.10;46.30;;;;;;5008659;28;20464;-68
2022/10/19 06:19:16;;;;;;;30.63;13.23;;;15.10;46.20;;;;;;5004419;28;20852;-68
2022/10/19 06:21:44;;;;;;;30.83;13.50;;;15.20;46.20;;;;;;5007228;28;20467;-69
2022/10/19 06:24:11;;;;;;;29.73;13.80;;;15.20;46.10;;;;;;5009132;28;21119;-69
2022/10/19 06:26:38;;;;;;;28.57;13.03;;;15.30;46.00;;;;;;5006898;28;20464;-67
2022/10/19 06:29:05;;;;;;;29.50;14.43;;;15.30;45.80;;;;;;5000854;28;20971;-68
2022/10/19 06:31:35;;;;;;;32.30;13.63;;;15.30;45.60;;;;;;5003116;28;20468;-66
2022/10/19 06:34:02;;;;;;;30.83;14.43;;;15.30;45.50;;;;;;5003145;28;20567;-69
2022/10/19 06:36:31;;;;;;;36.17;14.87;;;15.30;45.40;;;;;;5005871;28;20463;-67
2022/10/19 06:38:58;;;;;;;27.67;14.10;;;15.40;45.20;;;;;;5005278;28;20468;-67
2022/10/19 06:41:26;;;;;;;45.73;14.43;;;15.40;45.10;;;;;;5006590;28;20461;-67
2022/10/19 06:43:54;;;;;;;29.03;13.97;;;15.50;44.90;;;;;;5007548;28;20471;-68
2022/10/19 06:46:23;;;;;;;32.97;16.10;;;15.50;44.90;;;;;;5004454;28;20463;-69
2022/10/19 06:48:51;;;;;;;27.10;14.23;;;15.50;44.90;;;;;;5002114;28;20466;-69
2022/10/19 06:51:18;;;;;;;30.27;14.83;;;15.50;44.80;;;;;;5003844;28;20494;-68
2022/10/19 06:53:46;;;;;;;30.10;15.50;;;15.50;44.80;;;;;;4996403;28;20502;-68
2022/10/19 06:56:13;;;;;;;78.83;16.70;;;15.60;44.60;;;;;;5002389;28;20543;-68
2022/10/19 06:58:40;;;;;;;29.27;15.13;;;15.60;44.60;;;;;;5005482;28;20460;-68
2022/10/19 07:01:08;;;;;;;64.23;17.30;;;15.60;44.40;;;;;;5008708;28;20474;-68
2022/10/19 07:03:36;;;;;;;28.37;14.20;;;15.60;44.30;;;;;;4999400;28;20473;-67
2022/10/19 07:06:05;;;;;;;40.60;16.00;;;15.70;44.10;;;;;;5002908;28;20468;-68
2022/10/19 07:08:33;;;;;;;30.83;15.93;;;15.70;43.90;;;;;;5006553;28;20460;-68
2022/10/19 07:11:03;;;;;;;34.80;17.80;;;15.70;44.10;;;;;;5002953;28;20487;-69
2022/10/19 07:13:30;;;;;;;34.43;14.50;;;15.70;44.20;;;;;;5003978;28;20459;-69
2022/10/19 07:15:58;;;;;;;30.87;16.60;;;15.70;44.20;;;;;;5004717;28;20855;-68
2022/10/19 07:18:25;;;;;;;31.30;14.47;;;15.80;44.00;;;;;;5002162;28;20471;-68
2022/10/19 07:20:56;;;;;;;27.13;13.27;;;15.80;44.10;;;;;;5006068;28;21205;-69
2022/10/19 07:23:24;;;;;;;30.93;17.77;;;15.80;44.10;;;;;;5004650;28;20810;-67
2022/10/19 07:25:52;;;;;;;29.13;16.33;;;15.80;44.00;;;;;;5006597;28;20835;-69
2022/10/19 07:28:20;;;;;;;29.20;15.60;;;15.90;44.00;;;;;;5001632;28;20464;-69
2022/10/19 07:30:47;;;;;;;29.20;15.43;;;15.90;43.90;;;;;;4997364;28;20459;-68
2022/10/19 07:33:14;;;;;;;36.97;16.10;;;16.00;43.80;;;;;;4997638;28;20976;-68
2022/10/19 07:35:41;;;;;;;28.17;15.10;;;16.00;43.50;;;;;;5007013;28;20456;-67
2022/10/19 07:38:08;;;;;;;28.57;13.97;;;16.00;43.30;;;;;;4993861;28;20464;-67
2022/10/19 07:40:35;;;;;;;24.37;13.50;;;16.10;43.20;;;;;;5007131;28;20467;-68
2022/10/19 07:43:01;;;;;;;30.83;16.30;;;16.10;43.20;;;;;;5000086;28;20463;-69
2022/10/19 07:45:30;;;;;;;32.00;16.47;;;16.20;43.30;;;;;;5005498;28;20480;-69
2022/10/19 07:47:56;;;;;;;27.80;15.30;;;16.20;43.00;;;;;;4998202;28;20468;-68
2022/10/19 07:50:24;;;;;;;28.30;16.70;;;16.20;42.80;;;;;;5004155;28;20455;-68
2022/10/19 07:52:51;;;;;;;28.00;15.17;;;16.20;42.80;;;;;;4995481;28;20486;-68
2022/10/19 07:55:19;;;;;;;31.20;17.57;;;16.20;42.50;;;;;;5004854;28;20923;-68
2022/10/19 07:57:48;;;;;;;27.20;15.87;;;16.20;42.70;;;;;;4991722;28;20473;-68
2022/10/19 08:00:15;;;;;;;26.53;15.10;;;16.30;42.60;;;;;;4999253;28;20459;-68
2022/10/19 08:02:43;;;;;;;26.90;15.63;;;16.30;42.60;;;;;;4999118;28;20452;-68
2022/10/19 08:05:10;;;;;;;30.13;17.50;;;16.30;42.60;;;;;;5003976;28;20692;-68
2022/10/19 08:07:37;;;;;;;27.90;16.33;;;16.30;42.60;;;;;;5003310;28;20456;-67
2022/10/19 08:10:04;;;;;;;28.70;16.77;;;16.30;42.60;;;;;;5003729;28;21040;-69
2022/10/19 08:12:31;;;;;;;28.60;17.10;;;16.30;42.60;;;;;;5005432;28;20494;-67
2022/10/19 08:14:58;;;;;;;28.83;16.20;;;16.30;42.80;;;;;;5002729;28;21240;-66
2022/10/19 08:17:25;;;;;;;29.43;16.73;;;16.30;42.70;;;;;;4992051;28;20600;-68
2022/10/19 08:19:53;;;;;;;24.03;15.27;;;16.30;42.80;;;;;;5003834;28;20482;-67
2022/10/19 08:22:20;;;;;;;24.97;15.47;;;16.30;42.60;;;;;;4999400;28;20460;-67
2022/10/19 08:24:47;;;;;;;20.30;13.67;;;16.40;42.40;;;;;;4998396;28;21004;-67
2022/10/19 08:27:14;;;;;;;25.20;15.80;;;16.40;42.20;;;;;;5005153;28;20806;-67
2022/10/19 08:29:41;;;;;;;20.80;14.07;;;16.40;42.10;;;;;;4993581;28;20481;-67
2022/10/19 08:32:08;;;;;;;19.90;14.07;;;16.40;42.30;;;;;;4998333;28;20484;-67
2022/10/19 08:34:34;;;;;;;19.00;13.30;;;16.50;42.40;;;;;;5001302;28;20483;-66
2022/10/19 08:37:03;;;;;;;21.03;14.80;;;16.50;42.10;;;;;;5000933;28;20484;-67
2022/10/19 08:39:30;;;;;;;17.60;10.83;;;16.50;41.80;;;;;;5002885;28;20460;-66
2022/10/19 08:42:03;;;;;;;18.57;12.57;;;16.50;41.60;;;;;;4998779;28;20479;-67
2022/10/19 08:44:59;;;;;;;20.97;13.27;;;16.50;41.10;;;;;;4999307;28;21015;-67
2022/10/19 08:47:45;;;;;;;20.13;11.93;;;16.50;41.70;;;;;;4976584;28;20459;-67
2022/10/19 08:50:19;;;;;;;18.90;14.07;;;16.50;41.20;;;;;;5005114;28;20458;-67
2022/10/19 08:52:52;;;;;;;18.77;12.80;;;16.50;41.60;;;;;;5001145;28;20475;-68
2022/10/19 08:55:25;;;;;;;17.03;11.73;;;16.50;41.40;;;;;;4996746;28;20488;-68
2022/10/19 08:58:01;;;;;;;16.50;12.53;;;16.60;41.00;;;;;;5004706;28;20980;-67
2022/10/19 09:00:36;;;;;;;16.97;12.00;;;16.60;40.70;;;;;;5001604;28;20944;-65
2022/10/19 09:03:16;;;;;;;14.20;10.50;;;16.60;40.40;;;;;;5004472;28;20510;-66
2022/10/19 09:05:47;;;;;;;14.73;10.40;;;16.50;40.30;;;;;;4998517;28;20463;-68
2022/10/19 09:08:16;;;;;;;16.03;10.97;;;16.50;40.00;;;;;;5000423;28;20479;-67
2022/10/19 09:10:47;;;;;;;18.40;12.97;;;16.50;39.90;;;;;;4998750;28;20467;-67
2022/10/19 09:13:20;;;;;;;17.93;12.80;;;16.50;40.00;;;;;;4998729;28;20538;-66
2022/10/19 09:15:50;;;;;;;18.03;13.20;;;16.50;40.20;;;;;;5003164;28;20464;-66
2022/10/19 09:18:21;;;;;;;15.60;11.97;;;16.50;40.40;;;;;;4996387;28;20456;-66
2022/10/19 09:20:50;;;;;;;16.97;11.17;;;16.50;40.20;;;;;;5003628;28;20490;-67
2022/10/19 09:23:27;;;;;;;15.23;11.03;;;16.50;40.00;;;;;;5001689;28;20460;-67
2022/10/19 09:25:56;;;;;;;16.83;10.40;;;16.50;39.70;;;;;;4995809;28;20470;-67
2022/10/19 09:28:38;;;;;;;14.27;9.10;;;16.50;39.80;;;;;;5001088;28;20463;-68
2022/10/19 09:31:06;;;;;;;16.87;10.00;;;16.50;39.70;;;;;;5003144;28;20468;-67
2022/10/19 09:33:37;;;;;;;14.67;11.00;;;16.50;39.40;;;;;;5001566;28;20513;-66
2022/10/19 09:36:07;;;;;;;17.00;11.60;;;16.50;39.60;;;;;;5002013;28;20472;-66
2022/10/19 09:38:35;;;;;;;16.60;12.27;;;16.50;39.10;;;;;;4995203;28;20464;-67
2022/10/19 09:41:15;;;;;;;15.93;12.07;;;16.50;39.30;;;;;;5003166;28;20455;-67
2022/10/19 09:43:49;;;;;;;16.50;12.33;;;16.50;39.70;;;;;;5000955;28;20502;-67
2022/10/19 09:46:27;;;;;;;13.53;11.03;;;16.50;39.30;;;;;;4997384;28;20466;-66
2022/10/19 09:48:54;;;;;;;16.70;11.20;;;16.40;39.60;;;;;;4998033;28;20464;-68
2022/10/19 09:51:21;;;;;;;14.30;10.70;;;16.40;39.90;;;;;;4999448;28;20468;-67
2022/10/19 09:53:52;;;;;;;13.10;10.10;;;16.40;39.90;;;;;;5004387;28;21200;-67
2022/10/19 09:56:21;;;;;;;14.97;10.53;;;16.40;39.70;;;;;;4995337;28;20464;-68
2022/10/19 09:58:49;;;;;;;13.23;8.67;;;16.40;39.50;;;;;;4999158;28;20471;-67
2022/10/19 10:01:31;;;;;;;13.37;9.63;;;16.40;39.60;;;;;;4995583;28;20476;-66
2022/10/19 10:04:05;;;;;;;13.77;9.90;;;16.40;39.10;;;;;;4999452;28;20483;-67
2022/10/19 10:06:33;;;;;;;15.27;10.80;;;16.50;39.10;;;;;;5006418;28;20459;-68
2022/10/19 10:09:02;;;;;;;13.60;10.47;;;16.50;39.20;;;;;;5002739;28;20466;-67
2022/10/19 10:11:32;;;;;;;24.43;12.97;;;16.50;39.30;;;;;;5004506;28;20470;-66
2022/10/19 10:14:05;;;;;;;15.23;11.00;;;16.60;39.00;;;;;;5007110;28;20479;-67
2022/10/19 10:16:37;;;;;;;15.07;10.47;;;16.60;39.00;;;;;;4999980;28;20487;-66
2022/10/19 10:19:07;;;;;;;14.80;10.50;;;16.60;39.00;;;;;;4997093;28;20459;-67
2022/10/19 10:21:45;;;;;;;18.80;11.50;;;16.70;38.80;;;;;;5002704;28;20952;-66
2022/10/19 10:24:20;;;;;;;14.63;10.30;;;16.60;38.40;;;;;;5005737;28;20479;-67
2022/10/19 10:26:48;;;;;;;14.23;10.80;;;16.70;38.60;;;;;;5006651;28;20467;-67
2022/10/19 10:29:20;;;;;;;13.53;10.33;;;16.70;38.60;;;;;;5007103;28;20473;-67
2022/10/19 10:31:50;;;;;;;11.83;8.83;;;16.80;38.20;;;;;;5002444;28;20480;-67
2022/10/19 10:34:27;;;;;;;15.00;11.10;;;16.80;38.30;;;;;;5003818;28;20519;-67
2022/10/19 10:36:55;;;;;;;15.50;11.33;;;16.80;38.10;;;;;;5002586;28;20487;-68
2022/10/19 10:39:25;;;;;;;14.50;10.13;;;16.80;38.20;;;;;;4997987;28;20952;-67
2022/10/19 10:41:54;;;;;;;13.40;10.53;;;16.80;38.30;;;;;;5005972;28;20668;-69
2022/10/19 10:44:23;;;;;;;13.23;11.20;;;16.80;38.40;;;;;;5002294;28;20484;-67
2022/10/19 10:46:53;;;;;;;14.00;10.13;;;16.80;38.20;;;;;;5009493;28;20490;-67
2022/10/19 10:49:24;;;;;;;11.80;9.10;;;16.80;38.10;;;;;;4999186;28;20487;-68
2022/10/19 10:51:54;;;;;;;13.60;9.10;;;16.90;37.50;;;;;;5001943;28;20452;-68
2022/10/19 10:54:24;;;;;;;11.97;9.13;;;16.90;37.50;;;;;;5000202;28;20783;-68
2022/10/19 10:57:12;;;;;;;12.30;8.70;;;16.90;37.20;;;;;;5012692;28;20490;-67
2022/10/19 10:59:51;;;;;;;14.43;10.63;;;17.00;37.20;;;;;;5007866;28;20499;-67
2022/10/19 11:02:31;;;;;;;12.33;8.40;;;17.00;37.10;;;;;;5002647;28;20469;-66
2022/10/19 11:05:02;;;;;;;10.10;7.43;;;17.10;36.00;;;;;;4998448;28;20502;-68
2022/10/19 11:07:32;;;;;;;11.23;8.00;;;17.10;35.90;;;;;;5001623;28;20462;-67
2022/10/19 11:10:08;;;;;;;11.67;8.40;;;17.00;35.40;;;;;;5006334;28;20567;-67
2022/10/19 11:12:39;;;;;;;9.63;7.20;;;17.10;35.30;;;;;;4999803;28;20483;-67
2022/10/19 11:15:15;;;;;;;11.10;8.50;;;17.10;35.30;;;;;;5001743;28;20488;-67
2022/10/19 11:17:55;;;;;;;11.67;7.80;;;17.20;35.60;;;;;;5003114;28;21037;-67
2022/10/19 11:20:24;;;;;;;13.10;9.23;;;17.30;35.20;;;;;;5000636;28;20952;-66
2022/10/19 11:22:56;;;;;;;11.80;9.40;;;17.30;35.10;;;;;;5002683;28;20471;-67
2022/10/19 11:25:30;;;;;;;11.53;9.00;;;17.40;35.00;;;;;;5006430;28;20510;-68
2022/10/19 11:28:09;;;;;;;11.60;9.33;;;17.40;35.40;;;;;;5006860;28;20959;-67
2022/10/19 11:30:47;;;;;;;12.33;9.63;;;17.50;35.00;;;;;;5004013;28;20551;-67
2022/10/19 11:33:20;;;;;;;11.90;8.13;;;17.60;34.80;;;;;;5004084;28;20482;-68
2022/10/19 11:35:51;;;;;;;12.47;8.40;;;17.60;34.60;;;;;;5000646;28;20460;-69
2022/10/19 11:38:42;;;;;;;11.63;9.00;;;17.70;34.60;;;;;;5004640;28;20891;-67
2022/10/19 11:41:29;;;;;;;10.60;8.37;;;17.70;34.50;;;;;;4998047;28;20457;-74
2022/10/19 11:44:09;;;;;;;12.10;8.67;;;17.80;33.90;;;;;;5002880;28;20488;-70
2022/10/19 11:46:44;;;;;;;10.10;7.20;;;17.80;33.60;;;;;;4999147;28;20540;-71
2022/10/19 11:49:26;;;;;;;16.73;7.57;;;17.70;33.80;;;;;;4997147;28;20788;-73
2022/10/19 11:52:00;;;;;;;10.33;7.97;;;17.70;33.90;;;;;;4995871;28;20470;-71
2022/10/19 11:54:44;;;;;;;10.57;7.90;;;17.70;33.80;;;;;;5002163;28;20487;-71
2022/10/19 11:57:19;;;;;;;11.33;8.47;;;17.80;33.50;;;;;;4999218;28;20538;-71
2022/10/19 11:59:58;;;;;;;10.60;6.87;;;17.70;33.50;;;;;;5000423;28;20470;-71
2022/10/19 12:02:57;;;;;;;11.73;7.93;;;17.80;33.60;;;;;;5003170;28;20467;-72
2022/10/19 12:05:29;;;;;;;11.40;8.13;;;17.90;33.00;;;;;;4993906;28;20670;-71
2022/10/19 12:08:06;;;;;;;11.20;7.77;;;17.90;33.10;;;;;;5005898;28;20472;-71
2022/10/19 12:10:39;;;;;;;9.67;7.70;;;18.00;33.00;;;;;;4997123;28;20467;-71
2022/10/19 12:13:12;;;;;;;10.90;6.17;;;18.00;32.30;;;;;;4994127;28;20476;-71
2022/10/19 12:15:43;;;;;;;14.67;8.47;;;18.00;32.50;;;;;;4998836;28;20474;-70
2022/10/19 12:18:18;;;;;;;9.50;7.40;;;17.90;32.00;;;;;;5001776;28;21070;-72
2022/10/19 12:20:49;;;;;;;9.27;6.10;;;17.80;32.00;;;;;;5003048;28;20455;-70
2022/10/19 12:23:27;;;;;;;10.20;7.30;;;17.80;32.40;;;;;;5000041;28;20535;-70
2022/10/19 12:25:57;;;;;;;11.80;7.43;;;17.70;32.90;;;;;;4998589;28;20456;-70
2022/10/19 12:28:30;;;;;;;10.97;6.63;;;17.60;32.80;;;;;;5001927;28;20551;-72
2022/10/19 12:31:01;;;;;;;9.20;6.90;;;17.60;32.70;;;;;;4998620;28;20469;-72
2022/10/19 12:33:33;;;;;;;9.63;7.00;;;17.50;32.30;;;;;;4997922;28;20484;-71
2022/10/19 12:36:10;;;;;;;9.40;6.97;;;17.50;32.60;;;;;;5004621;28;20463;-72
2022/10/19 12:38:47;;;;;;;13.53;7.90;;;17.40;33.00;;;;;;5004838;28;20854;-71
2022/10/19 12:41:22;;;;;;;9.63;7.80;;;17.40;33.30;;;;;;5002076;28;20460;-71
2022/10/19 12:44:09;;;;;;;12.53;8.63;;;17.40;33.60;;;;;;5001175;28;21073;-70
2022/10/19 12:46:41;;;;;;;10.50;7.80;;;17.40;33.40;;;;;;4994655;28;20467;-71